Time;durP1;ratioP1;P1;durP2;ratioP2;P2;SDS_P1;SDS_P2;PMS_P1;PMS_P2;Temp;Humidity;BMP_temperature;BMP_pressure;BME280_temperature;BME280_humidity;BME280_pressure;Samples;Min_cycle;Max_cycle;Signal;HPM_P1;HPM_P2
2022/04/06 00:01:46;;;;;;;10.33;9.17;;;;;;;;;;5072944;28;20466;-61
2022/04/06 00:04:12;;;;;;;9.10;8.20;;;;;;;;;;5072916;28;20457;-61
2022/04/06 00:06:38;;;;;;;9.00;8.10;;;;;;;;;;5071571;28;20506;-61
2022/04/06 00:09:05;;;;;;;8.80;7.43;;;;;;;;;;5071639;28;20446;-60
2022/04/06 00:11:31;;;;;;;9.33;8.43;;;;;;;;;;5072894;28;20418;-61
2022/04/06 00:13:57;;;;;;;9.10;7.63;;;;;;;;;;5072843;28;20911;-60
2022/04/06 00:16:23;;;;;;;14.97;7.20;;;;;;;;;;5071580;28;20966;-62
2022/04/06 00:18:49;;;;;;;9.43;8.30;;;;;;;;;;5071471;28;20425;-60
2022/04/06 00:21:16;;;;;;;9.37;8.40;;;;;;;;;;5072653;28;20458;-61
2022/04/06 00:23:42;;;;;;;8.57;7.77;;;;;;;;;;5071674;28;20415;-60
2022/04/06 00:26:08;;;;;;;9.80;7.77;;;;;;;;;;5072652;28;20409;-59
2022/04/06 00:28:34;;;;;;;9.30;8.37;;;;;;;;;;5071675;28;20415;-59
2022/04/06 00:31:00;;;;;;;9.57;8.67;;;;;;;;;;5071295;28;20464;-60
2022/04/06 00:33:26;;;;;;;9.47;8.47;;;;;;;;;;5072716;28;20417;-57
2022/04/06 00:35:52;;;;;;;8.90;7.77;;;;;;;;;;5072529;28;20431;-61
2022/04/06 00:38:18;;;;;;;10.30;9.20;;;;;;;;;;5072702;28;20456;-59
2022/04/06 00:40:45;;;;;;;11.43;9.10;;;;;;;;;;5071224;28;20453;-57
2022/04/06 00:43:14;;;;;;;10.50;8.77;;;;;;;;;;5071066;28;20513;-56
2022/04/06 00:45:41;;;;;;;9.70;8.63;;;;;;;;;;5071999;28;20410;-59
2022/04/06 00:48:08;;;;;;;11.17;9.20;;;;;;;;;;5072517;28;20496;-61
2022/04/06 00:50:34;;;;;;;11.13;9.20;;;;;;;;;;5072505;28;20802;-59
2022/04/06 00:53:01;;;;;;;11.10;9.30;;;;;;;;;;5072475;28;20445;-57
2022/04/06 00:55:37;;;;;;;11.90;9.20;;;;;;;;;;5072364;28;20406;-56
2022/04/06 00:58:04;;;;;;;12.83;9.67;;;;;;;;;;5072246;28;20407;-58
2022/04/06 01:00:30;;;;;;;11.40;9.63;;;;;;;;;;5072299;28;20411;-56
2022/04/06 01:02:56;;;;;;;10.97;9.03;;;;;;;;;;5072240;28;20524;-57
2022/04/06 01:05:25;;;;;;;13.30;9.93;;;;;;;;;;5072289;28;20403;-58
2022/04/06 01:07:52;;;;;;;13.03;9.40;;;;;;;;;;5071007;28;20432;-55
2022/04/06 01:10:18;;;;;;;14.47;9.90;;;;;;;;;;5072386;28;20972;-59
2022/04/06 01:12:48;;;;;;;16.60;9.87;;;;;;;;;;5072305;28;20450;-57
2022/04/06 01:15:14;;;;;;;12.90;10.00;;;;;;;;;;5071287;28;20411;-56
2022/04/06 01:17:40;;;;;;;11.10;9.77;;;;;;;;;;5072202;28;20419;-61
2022/04/06 01:20:07;;;;;;;13.20;10.53;;;;;;;;;;5072047;28;20861;-58
2022/04/06 01:22:34;;;;;;;12.87;10.27;;;;;;;;;;5070823;28;20977;-61
2022/04/06 01:25:00;;;;;;;15.70;10.07;;;;;;;;;;5072169;28;20494;-59
2022/04/06 01:27:27;;;;;;;15.10;11.37;;;;;;;;;;5070791;28;20948;-58
2022/04/06 01:29:54;;;;;;;12.80;10.77;;;;;;;;;;5072084;28;20472;-56
2022/04/06 01:32:21;;;;;;;13.23;10.77;;;;;;;;;;5070984;28;20837;-58
2022/04/06 01:34:48;;;;;;;13.73;10.67;;;;;;;;;;5072204;28;20413;-57
2022/04/06 01:37:14;;;;;;;14.17;10.70;;;;;;;;;;5070817;28;20914;-58
2022/04/06 01:39:44;;;;;;;13.73;11.43;;;;;;;;;;5070744;28;20421;-59
2022/04/06 01:42:11;;;;;;;12.00;10.43;;;;;;;;;;5071738;28;20469;-57
2022/04/06 01:44:38;;;;;;;14.77;11.07;;;;;;;;;;5071915;28;20505;-60
2022/04/06 01:47:05;;;;;;;12.43;8.90;;;;;;;;;;5072018;28;20414;-60
2022/04/06 01:52:16;;;;;;;12.30;8.43;;;;;;;;;;5072369;28;20805;-60
2022/04/06 01:54:44;;;;;;;12.53;9.00;;;;;;;;;;5071789;28;20976;-62
2022/04/06 01:57:10;;;;;;;9.70;8.40;;;;;;;;;;5073164;28;20907;-61
2022/04/06 01:59:36;;;;;;;7.50;6.80;;;;;;;;;;5075323;28;20436;-63
2022/04/06 02:02:04;;;;;;;10.73;7.87;;;;;;;;;;5075235;28;20974;-61
2022/04/06 02:04:30;;;;;;;10.50;8.80;;;;;;;;;;5075221;28;20399;-61
2022/04/06 02:06:57;;;;;;;10.87;8.97;;;;;;;;;;5075254;28;20406;-65
2022/04/06 02:09:23;;;;;;;10.00;9.00;;;;;;;;;;5075404;28;20450;-59
2022/04/06 02:11:49;;;;;;;13.20;10.20;;;;;;;;;;5075511;28;20452;-61
2022/04/06 02:14:16;;;;;;;12.40;10.07;;;;;;;;;;5075319;28;20421;-62
2022/04/06 02:16:46;;;;;;;15.70;11.00;;;;;;;;;;5075265;28;20937;-60
2022/04/06 02:19:12;;;;;;;15.00;11.27;;;;;;;;;;5074988;28;20443;-61
2022/04/06 02:21:38;;;;;;;14.10;11.03;;;;;;;;;;5074979;28;20507;-62
2022/04/06 02:24:04;;;;;;;12.60;10.80;;;;;;;;;;5073755;28;20471;-61
2022/04/06 02:26:30;;;;;;;14.70;10.23;;;;;;;;;;5074974;28;20918;-59
2022/04/06 02:28:57;;;;;;;14.43;10.43;;;;;;;;;;5074881;28;20398;-61
2022/04/06 02:31:23;;;;;;;14.00;10.70;;;;;;;;;;5074851;28;20433;-61
2022/04/06 02:33:49;;;;;;;15.43;10.70;;;;;;;;;;5074946;28;20763;-61
2022/04/06 02:36:16;;;;;;;15.33;11.20;;;;;;;;;;5074675;28;20414;-59
2022/04/06 02:38:42;;;;;;;14.20;10.83;;;;;;;;;;5074636;28;20493;-64
2022/04/06 02:41:11;;;;;;;16.63;11.77;;;;;;;;;;5074547;28;20417;-61
2022/04/06 02:43:37;;;;;;;15.17;12.20;;;;;;;;;;5074490;28;20497;-59
2022/04/06 02:46:03;;;;;;;17.13;12.53;;;;;;;;;;5073165;28;20407;-58
2022/04/06 02:48:29;;;;;;;17.07;12.00;;;;;;;;;;5074442;28;20411;-60
2022/04/06 02:50:56;;;;;;;19.23;12.00;;;;;;;;;;5074444;28;20468;-61
2022/04/06 02:53:22;;;;;;;16.87;11.90;;;;;;;;;;5074274;28;20411;-58
2022/04/06 02:55:51;;;;;;;13.57;11.20;;;;;;;;;;5074433;28;20410;-61
2022/04/06 02:58:17;;;;;;;16.87;11.90;;;;;;;;;;5074485;28;20403;-62
2022/04/06 03:00:43;;;;;;;17.20;12.20;;;;;;;;;;5074019;28;20418;-57
2022/04/06 03:03:09;;;;;;;15.40;11.93;;;;;;;;;;5073904;28;20466;-59
2022/04/06 03:05:35;;;;;;;16.83;12.00;;;;;;;;;;5072658;28;20494;-58
2022/04/06 03:08:02;;;;;;;17.53;12.10;;;;;;;;;;5072429;28;20506;-60
2022/04/06 03:10:28;;;;;;;22.13;13.60;;;;;;;;;;5073996;28;20532;-58
2022/04/06 03:12:54;;;;;;;15.03;11.40;;;;;;;;;;5073823;28;20399;-57
2022/04/06 03:15:20;;;;;;;18.07;12.50;;;;;;;;;;5072780;28;20414;-57
2022/04/06 03:17:47;;;;;;;18.83;13.97;;;;;;;;;;5073908;28;20414;-59
2022/04/06 03:20:13;;;;;;;20.70;14.33;;;;;;;;;;5072394;28;20534;-59
2022/04/06 03:22:39;;;;;;;22.47;14.20;;;;;;;;;;5073610;28;20498;-61
2022/04/06 03:25:06;;;;;;;23.13;14.93;;;;;;;;;;5072520;28;20411;-62
2022/04/06 03:27:33;;;;;;;26.07;14.60;;;;;;;;;;5073563;28;20914;-61
2022/04/06 03:30:00;;;;;;;19.57;11.63;;;;;;;;;;5073686;28;20498;-58
2022/04/06 03:32:29;;;;;;;22.73;13.50;;;;;;;;;;5073566;28;20403;-59
2022/04/06 03:34:55;;;;;;;16.93;12.70;;;;;;;;;;5073521;28;20743;-60
2022/04/06 03:37:21;;;;;;;18.53;13.50;;;;;;;;;;5073526;28;20410;-61
2022/04/06 03:39:47;;;;;;;18.97;12.50;;;;;;;;;;5073597;28;20456;-60
2022/04/06 03:42:13;;;;;;;13.53;9.50;;;;;;;;;;5073266;28;20557;-60
2022/04/06 03:44:39;;;;;;;18.20;11.67;;;;;;;;;;5073316;28;20398;-58
2022/04/06 03:47:05;;;;;;;13.00;7.73;;;;;;;;;;5073229;28;20403;-59
2022/04/06 03:49:34;;;;;;;13.10;9.57;;;;;;;;;;5073231;28;20907;-59
2022/04/06 03:52:01;;;;;;;13.17;9.07;;;;;;;;;;5073021;28;20415;-59
2022/04/06 03:54:27;;;;;;;9.90;8.43;;;;;;;;;;5071926;28;20437;-58
2022/04/06 03:56:53;;;;;;;8.87;7.07;;;;;;;;;;5073122;28;20763;-61
2022/04/06 03:59:19;;;;;;;9.17;7.70;;;;;;;;;;5073074;28;20411;-61
2022/04/06 04:01:45;;;;;;;12.33;7.53;;;;;;;;;;5073027;28;20796;-60
2022/04/06 04:04:11;;;;;;;10.70;7.80;;;;;;;;;;5071619;28;20808;-61
2022/04/06 04:06:37;;;;;;;10.43;7.47;;;;;;;;;;5072956;28;20518;-61
2022/04/06 04:09:03;;;;;;;10.87;7.30;;;;;;;;;;5072826;28;20403;-60
2022/04/06 04:11:30;;;;;;;17.13;6.40;;;;;;;;;;5072698;28;20399;-62
2022/04/06 04:13:56;;;;;;;7.97;6.83;;;;;;;;;;5072864;28;20403;-58
2022/04/06 04:16:23;;;;;;;11.70;6.87;;;;;;;;;;5072660;28;20798;-60
2022/04/06 04:18:49;;;;;;;14.93;7.23;;;;;;;;;;5072716;28;20884;-60
2022/04/06 04:21:34;;;;;;;9.53;6.63;;;;;;;;;;5070956;28;20468;-63
2022/04/06 04:24:04;;;;;;;13.80;6.50;;;;;;;;;;5071394;28;20442;-59
2022/04/06 04:26:30;;;;;;;10.27;7.57;;;;;;;;;;5071439;28;20926;-60
2022/04/06 04:28:56;;;;;;;12.03;6.10;;;;;;;;;;5072553;28;20406;-59
2022/04/06 04:31:22;;;;;;;16.00;7.30;;;;;;;;;;5071373;28;20429;-57
2022/04/06 04:33:51;;;;;;;13.77;7.97;;;;;;;;;;5072695;28;20394;-60
2022/04/06 04:36:17;;;;;;;8.80;6.60;;;;;;;;;;5072674;28;20417;-60
2022/04/06 04:38:44;;;;;;;16.23;7.43;;;;;;;;;;5072557;28;20469;-61
2022/04/06 04:41:11;;;;;;;17.70;8.00;;;;;;;;;;5071176;28;20430;-61
2022/04/06 04:43:37;;;;;;;12.53;7.53;;;;;;;;;;5072661;28;20415;-61
2022/04/06 04:46:04;;;;;;;8.90;7.97;;;;;;;;;;5072490;28;20766;-62
2022/04/06 04:48:30;;;;;;;10.77;8.07;;;;;;;;;;5072464;28;20906;-60
2022/04/06 04:50:56;;;;;;;9.93;7.60;;;;;;;;;;5071144;28;20410;-60
2022/04/06 04:53:23;;;;;;;16.90;9.53;;;;;;;;;;5072187;28;20828;-62
2022/04/06 04:55:49;;;;;;;11.50;9.07;;;;;;;;;;5072462;28;20984;-60
2022/04/06 04:58:15;;;;;;;16.10;9.17;;;;;;;;;;5072283;28;20411;-59
2022/04/06 05:00:42;;;;;;;14.83;9.67;;;;;;;;;;5072400;28;20406;-60
2022/04/06 05:03:11;;;;;;;14.87;10.60;;;;;;;;;;5070834;28;20474;-57
2022/04/06 05:05:39;;;;;;;14.60;9.53;;;;;;;;;;5072104;28;20414;-60
2022/04/06 05:08:06;;;;;;;15.03;10.33;;;;;;;;;;5070981;28;20422;-58
2022/04/06 05:10:34;;;;;;;16.50;9.97;;;;;;;;;;5072125;28;20402;-56
2022/04/06 05:13:01;;;;;;;17.10;11.10;;;;;;;;;;5072152;28;20443;-57
2022/04/06 05:15:27;;;;;;;16.43;11.17;;;;;;;;;;5072213;28;20959;-60
2022/04/06 05:17:56;;;;;;;11.67;9.70;;;;;;;;;;5072144;28;20413;-58
2022/04/06 05:20:22;;;;;;;14.90;10.60;;;;;;;;;;5071935;28;20485;-58
2022/04/06 05:22:48;;;;;;;16.07;11.27;;;;;;;;;;5072082;28;20466;-58
2022/04/06 05:25:14;;;;;;;16.60;11.20;;;;;;;;;;5071950;28;20907;-60
2022/04/06 05:27:47;;;;;;;14.63;11.80;;;;;;;;;;5071816;28;20469;-58
2022/04/06 05:30:17;;;;;;;19.30;11.47;;;;;;;;;;5071839;28;20403;-57
2022/04/06 05:32:44;;;;;;;12.53;11.10;;;;;;;;;;5075866;28;20409;-60
2022/04/06 05:35:11;;;;;;;22.27;10.93;;;;;;;;;;5074298;28;20413;-62
2022/04/06 05:37:41;;;;;;;14.37;10.90;;;;;;;;;;5075537;28;20415;-59
2022/04/06 05:40:08;;;;;;;12.33;10.53;;;;;;;;;;5075485;28;20468;-62
2022/04/06 05:42:34;;;;;;;12.20;10.00;;;;;;;;;;5075200;28;20876;-61
2022/04/06 05:45:00;;;;;;;17.33;10.03;;;;;;;;;;5075566;28;20402;-61
2022/04/06 05:47:26;;;;;;;13.60;10.17;;;;;;;;;;5075466;28;20468;-60
2022/04/06 05:49:52;;;;;;;15.13;10.10;;;;;;;;;;5075271;28;20401;-63
2022/04/06 05:52:19;;;;;;;14.17;10.10;;;;;;;;;;5075569;28;20736;-60
2022/04/06 05:54:45;;;;;;;11.90;9.90;;;;;;;;;;5075189;28;20399;-62
2022/04/06 05:57:11;;;;;;;13.37;10.37;;;;;;;;;;5075265;28;20430;-60
2022/04/06 05:59:37;;;;;;;16.20;10.30;;;;;;;;;;5075329;28;20411;-57
2022/04/06 06:02:06;;;;;;;14.63;10.03;;;;;;;;;;5075172;28;20556;-63
2022/04/06 06:04:33;;;;;;;10.77;8.63;;;;;;;;;;5074987;28;20410;-60
2022/04/06 06:06:59;;;;;;;11.00;9.57;;;;;;;;;;5075119;28;20422;-59
2022/04/06 06:09:25;;;;;;;16.53;9.80;;;;;;;;;;5073760;28;20411;-59
2022/04/06 06:11:51;;;;;;;12.03;10.47;;;;;;;;;;5073860;28;20419;-60
2022/04/06 06:14:20;;;;;;;14.17;10.00;;;;;;;;;;5075162;28;20414;-57
2022/04/06 06:16:46;;;;;;;14.00;9.30;;;;;;;;;;5074956;28;20415;-60
2022/04/06 06:19:12;;;;;;;15.50;10.30;;;;;;;;;;5074429;28;20451;-61
2022/04/06 06:21:38;;;;;;;12.80;9.30;;;;;;;;;;5074883;28;20454;-58
2022/04/06 06:24:06;;;;;;;14.70;9.70;;;;;;;;;;5074785;28;20406;-59
2022/04/06 06:26:33;;;;;;;11.97;9.17;;;;;;;;;;5074996;28;20406;-61
2022/04/06 06:28:59;;;;;;;14.27;9.70;;;;;;;;;;5074879;28;20894;-64
2022/04/06 06:31:25;;;;;;;13.50;9.47;;;;;;;;;;5079455;28;20441;-60
2022/04/06 06:33:52;;;;;;;12.80;9.30;;;;;;;;;;5074676;28;20415;-59
2022/04/06 06:36:18;;;;;;;11.73;8.57;;;;;;;;;;5073534;28;20857;-60
2022/04/06 06:38:44;;;;;;;10.10;8.40;;;;;;;;;;5074558;28;20407;-59
2022/04/06 06:41:10;;;;;;;12.97;8.50;;;;;;;;;;5074117;28;20930;-62
2022/04/06 06:43:36;;;;;;;12.70;9.17;;;;;;;;;;5073614;28;20449;-58
2022/04/06 06:46:03;;;;;;;9.33;8.43;;;;;;;;;;5074436;28;20406;-59
2022/04/06 06:48:28;;;;;;;10.00;8.73;;;;;;;;;;5074524;28;20407;-60
2022/04/06 06:50:55;;;;;;;12.53;9.07;;;;;;;;;;5074359;28;20755;-60
2022/04/06 06:53:21;;;;;;;9.97;8.00;;;;;;;;;;5073029;28;20513;-56
2022/04/06 06:55:47;;;;;;;10.80;7.67;;;;;;;;;;5074436;28;20488;-60
2022/04/06 06:58:13;;;;;;;12.23;9.20;;;;;;;;;;5072920;28;20453;-62
2022/04/06 07:00:39;;;;;;;12.43;8.73;;;;;;;;;;5074230;28;20414;-59
2022/04/06 07:03:05;;;;;;;12.30;8.50;;;;;;;;;;5073916;28;20462;-55
2022/04/06 07:05:31;;;;;;;24.03;9.03;;;;;;;;;;5074129;28;20438;-56
2022/04/06 07:08:00;;;;;;;9.63;7.40;;;;;;;;;;5073061;28;20501;-56
2022/04/06 07:10:29;;;;;;;15.63;7.93;;;;;;;;;;5074441;28;20493;-56
2022/04/06 07:12:55;;;;;;;11.50;8.60;;;;;;;;;;5074188;28;20406;-56
2022/04/06 07:15:21;;;;;;;12.13;9.30;;;;;;;;;;5074033;28;20406;-54
2022/04/06 07:17:53;;;;;;;9.27;8.00;;;;;;;;;;5074206;28;20422;-56
2022/04/06 07:20:19;;;;;;;12.97;8.07;;;;;;;;;;5073364;28;20454;-58
2022/04/06 07:22:46;;;;;;;12.47;9.30;;;;;;;;;;5073243;28;20598;-56
2022/04/06 07:25:12;;;;;;;10.77;8.33;;;;;;;;;;5072834;28;20464;-55
2022/04/06 07:27:39;;;;;;;11.33;8.00;;;;;;;;;;5072451;28;20399;-56
2022/04/06 07:30:05;;;;;;;13.10;8.50;;;;;;;;;;5073241;28;20500;-58
2022/04/06 07:32:32;;;;;;;9.43;7.80;;;;;;;;;;5072146;28;20437;-57
2022/04/06 07:34:58;;;;;;;11.07;8.47;;;;;;;;;;5072013;28;20865;-55
2022/04/06 07:37:24;;;;;;;10.33;7.83;;;;;;;;;;5073445;28;20399;-57
2022/04/06 07:39:51;;;;;;;11.90;8.57;;;;;;;;;;5072356;28;20918;-57
2022/04/06 07:42:17;;;;;;;9.70;8.67;;;;;;;;;;5073626;28;21068;-60
2022/04/06 07:44:43;;;;;;;12.87;9.40;;;;;;;;;;5070647;28;20501;-58
2022/04/06 07:47:09;;;;;;;12.83;8.33;;;;;;;;;;5088242;28;20431;-59
2022/04/06 07:49:35;;;;;;;10.20;8.30;;;;;;;;;;5072302;28;20418;-59
2022/04/06 07:52:01;;;;;;;9.10;8.00;;;;;;;;;;5080916;28;20418;-60
2022/04/06 07:54:27;;;;;;;12.00;8.40;;;;;;;;;;5092756;28;20674;-58
2022/04/06 07:56:53;;;;;;;8.50;7.63;;;;;;;;;;5092674;28;20417;-56
2022/04/06 07:59:19;;;;;;;12.60;8.30;;;;;;;;;;5092765;28;20790;-58
2022/04/06 08:01:45;;;;;;;9.30;8.30;;;;;;;;;;5074457;28;20458;-60
2022/04/06 08:04:11;;;;;;;14.70;7.50;;;;;;;;;;5070826;28;20471;-58
2022/04/06 08:06:37;;;;;;;12.27;8.97;;;;;;;;;;5072218;28;20442;-61
2022/04/06 08:09:06;;;;;;;11.27;8.70;;;;;;;;;;5068830;28;20922;-61
2022/04/06 08:11:32;;;;;;;11.03;7.70;;;;;;;;;;5052988;28;20928;-61
2022/04/06 08:13:58;;;;;;;10.73;7.93;;;;;;;;;;5051589;28;20526;-61
2022/04/06 08:16:24;;;;;;;15.80;7.67;;;;;;;;;;5072379;28;20402;-60
2022/04/06 08:18:50;;;;;;;10.93;8.30;;;;;;;;;;5072486;28;20410;-60
2022/04/06 08:21:20;;;;;;;9.13;7.37;;;;;;;;;;5071978;28;20406;-59
2022/04/06 08:23:47;;;;;;;7.53;6.83;;;;;;;;;;5072793;28;20527;-58
2022/04/06 08:26:13;;;;;;;9.43;7.10;;;;;;;;;;5071171;28;20514;-60
2022/04/06 08:28:40;;;;;;;10.43;8.10;;;;;;;;;;5071421;28;20451;-61
2022/04/06 08:31:06;;;;;;;12.83;7.60;;;;;;;;;;5072488;28;20887;-61
2022/04/06 08:33:32;;;;;;;9.90;6.37;;;;;;;;;;5072052;28;20428;-62
2022/04/06 08:35:58;;;;;;;8.20;7.40;;;;;;;;;;5072412;28;20802;-60
2022/04/06 08:38:24;;;;;;;8.57;7.67;;;;;;;;;;5071110;28;20436;-58
2022/04/06 08:40:51;;;;;;;10.63;7.57;;;;;;;;;;5071084;28;20441;-55
2022/04/06 08:43:17;;;;;;;12.50;7.80;;;;;;;;;;5071569;28;20470;-58
2022/04/06 08:45:44;;;;;;;9.67;7.57;;;;;;;;;;5072214;28;20435;-58
2022/04/06 08:48:11;;;;;;;8.63;6.77;;;;;;;;;;5070348;28;20438;-62
2022/04/06 08:50:38;;;;;;;8.70;7.40;;;;;;;;;;5070759;28;20966;-59
2022/04/06 08:53:08;;;;;;;7.97;7.13;;;;;;;;;;5071810;28;20415;-60
2022/04/06 08:55:34;;;;;;;9.47;7.33;;;;;;;;;;5071920;28;20403;-60
2022/04/06 08:58:01;;;;;;;7.23;6.60;;;;;;;;;;5072106;28;20410;-60
2022/04/06 09:00:27;;;;;;;7.20;6.57;;;;;;;;;;5071968;28;20772;-58
2022/04/06 09:02:53;;;;;;;9.30;6.50;;;;;;;;;;5071680;28;20474;-58
2022/04/06 09:05:21;;;;;;;10.47;5.77;;;;;;;;;;5071937;28;20488;-55
2022/04/06 09:07:51;;;;;;;9.37;6.90;;;;;;;;;;5076564;28;20410;-57
2022/04/06 09:10:28;;;;;;;7.43;6.70;;;;;;;;;;5075965;28;20414;-57
2022/04/06 09:13:06;;;;;;;11.90;7.90;;;;;;;;;;5075823;28;20398;-58
2022/04/06 09:15:35;;;;;;;7.00;6.30;;;;;;;;;;5075999;28;20485;-58
2022/04/06 09:18:02;;;;;;;11.87;7.00;;;;;;;;;;5076182;28;20399;-59
2022/04/06 09:20:29;;;;;;;8.10;5.93;;;;;;;;;;5075969;28;20999;-60
2022/04/06 09:22:55;;;;;;;7.50;5.87;;;;;;;;;;5075545;28;20494;-57
2022/04/06 09:25:22;;;;;;;8.40;6.97;;;;;;;;;;5074581;28;20403;-58
2022/04/06 09:27:48;;;;;;;12.80;7.60;;;;;;;;;;5076115;28;20418;-59
2022/04/06 09:30:15;;;;;;;7.63;6.87;;;;;;;;;;5075612;28;20399;-58
2022/04/06 09:32:41;;;;;;;6.87;6.17;;;;;;;;;;5075874;28;20411;-56
2022/04/06 09:35:23;;;;;;;8.77;7.10;;;;;;;;;;5075299;28;20429;-57
2022/04/06 09:37:49;;;;;;;7.27;6.57;;;;;;;;;;5074541;28;20465;-59
2022/04/06 09:40:15;;;;;;;8.43;7.20;;;;;;;;;;5075608;28;20411;-57
2022/04/06 09:42:50;;;;;;;7.93;7.13;;;;;;;;;;5075548;28;20493;-59
2022/04/06 09:48:12;;;;;;;7.20;6.50;;;;;;;;;;5075806;28;20467;-60
2022/04/06 09:50:38;;;;;;;12.03;6.60;;;;;;;;;;5075571;28;20406;-60
2022/04/06 09:53:06;;;;;;;8.00;7.30;;;;;;;;;;5075142;28;20419;-57
2022/04/06 09:55:33;;;;;;;13.53;7.03;;;;;;;;;;5075140;28;20402;-59
2022/04/06 09:58:01;;;;;;;6.00;5.60;;;;;;;;;;5074274;28;20426;-56
2022/04/06 10:00:31;;;;;;;6.63;6.03;;;;;;;;;;5075297;28;20414;-58
2022/04/06 10:03:03;;;;;;;8.50;5.90;;;;;;;;;;5074888;28;20784;-57
2022/04/06 10:05:33;;;;;;;7.47;6.60;;;;;;;;;;5073494;28;20418;-57
2022/04/06 10:08:04;;;;;;;5.57;4.57;;;;;;;;;;5075074;28;20995;-59
2022/04/06 10:10:31;;;;;;;5.70;5.10;;;;;;;;;;5075124;28;20472;-62
2022/04/06 10:12:57;;;;;;;8.80;5.33;;;;;;;;;;5074522;28;20418;-57
2022/04/06 10:15:27;;;;;;;7.67;5.70;;;;;;;;;;5074585;28;20426;-59
2022/04/06 10:17:53;;;;;;;6.57;4.90;;;;;;;;;;5073672;28;20844;-59
2022/04/06 10:20:27;;;;;;;6.73;5.63;;;;;;;;;;5074889;28;20450;-58
2022/04/06 10:23:13;;;;;;;4.53;3.83;;;;;;;;;;5074476;28;20476;-59
2022/04/06 10:25:57;;;;;;;5.17;4.67;;;;;;;;;;5074656;28;20464;-59
2022/04/06 10:28:23;;;;;;;7.17;5.20;;;;;;;;;;5074975;28;20918;-60
2022/04/06 10:31:08;;;;;;;7.50;4.87;;;;;;;;;;5074831;28;20455;-57
2022/04/06 10:33:35;;;;;;;4.97;4.53;;;;;;;;;;5072901;28;20927;-61
2022/04/06 10:36:20;;;;;;;4.67;4.07;;;;;;;;;;5074460;28;20402;-58
2022/04/06 10:39:18;;;;;;;7.50;4.77;;;;;;;;;;5074842;28;20419;-58
2022/04/06 10:42:03;;;;;;;4.93;4.47;;;;;;;;;;5029745;28;20472;-56
2022/04/06 10:44:38;;;;;;;4.33;4.00;;;;;;;;;;5074151;28;20472;-59
2022/04/06 10:47:08;;;;;;;4.60;4.20;;;;;;;;;;5074246;28;20489;-55
2022/04/06 10:49:34;;;;;;;5.00;4.60;;;;;;;;;;5058876;28;20765;-59
2022/04/06 10:52:17;;;;;;;4.37;4.07;;;;;;;;;;5054146;28;20411;-56
2022/04/06 10:54:44;;;;;;;4.60;4.30;;;;;;;;;;5053098;28;20420;-60
2022/04/06 10:57:13;;;;;;;4.80;4.50;;;;;;;;;;5053872;28;20399;-56
2022/04/06 10:59:40;;;;;;;6.40;4.50;;;;;;;;;;5052751;28;20479;-58
2022/04/06 11:02:20;;;;;;;6.83;5.23;;;;;;;;;;5052908;28;20471;-59
2022/04/06 11:04:46;;;;;;;4.23;4.00;;;;;;;;;;5052760;28;20419;-57
2022/04/06 11:07:15;;;;;;;6.43;4.40;;;;;;;;;;5053812;28;20528;-58
2022/04/06 11:12:30;;;;;;;7.90;4.57;;;;;;;;;;5054154;28;20461;-62
2022/04/06 11:14:59;;;;;;;7.50;4.80;;;;;;;;;;5053380;28;20454;-58
2022/04/06 11:17:32;;;;;;;5.63;5.10;;;;;;;;;;5053698;28;20408;-58
2022/04/06 11:19:58;;;;;;;5.37;4.60;;;;;;;;;;5052555;28;20467;-58
2022/04/06 11:22:24;;;;;;;6.90;4.33;;;;;;;;;;5053706;28;20467;-62
2022/04/06 11:24:50;;;;;;;5.93;4.20;;;;;;;;;;5052399;28;20440;-59
2022/04/06 11:27:30;;;;;;;4.73;4.43;;;;;;;;;;5074280;28;20428;-61
2022/04/06 11:30:13;;;;;;;4.17;3.97;;;;;;;;;;5063487;28;20405;-58
2022/04/06 11:32:45;;;;;;;4.40;4.03;;;;;;;;;;5073026;28;20411;-62
2022/04/06 11:35:12;;;;;;;4.20;3.90;;;;;;;;;;5072235;28;20930;-60
2022/04/06 11:37:48;;;;;;;4.43;4.10;;;;;;;;;;5073076;28;20486;-60
2022/04/06 11:40:21;;;;;;;7.73;4.70;;;;;;;;;;5072697;28;20494;-59
2022/04/06 11:42:48;;;;;;;3.97;3.67;;;;;;;;;;5078927;28;20466;-57
2022/04/06 11:45:19;;;;;;;4.43;4.13;;;;;;;;;;5093084;28;20420;-59
2022/04/06 11:47:51;;;;;;;4.43;4.13;;;;;;;;;;5092980;28;20405;-58
2022/04/06 11:50:18;;;;;;;4.37;4.07;;;;;;;;;;5093164;28;20402;-58
2022/04/06 11:52:44;;;;;;;6.13;3.37;;;;;;;;;;5092872;28;20410;-61
2022/04/06 11:55:10;;;;;;;4.30;3.70;;;;;;;;;;5092872;28;20811;-61
2022/04/06 11:57:37;;;;;;;4.07;3.73;;;;;;;;;;5091576;28;20422;-57
2022/04/06 12:00:08;;;;;;;5.13;4.60;;;;;;;;;;5084950;28;20843;-61
2022/04/06 12:02:51;;;;;;;24.63;4.57;;;;;;;;;;5072485;28;20478;-60
2022/04/06 12:05:17;;;;;;;7.23;3.90;;;;;;;;;;5072684;28;20438;-57
2022/04/06 12:07:44;;;;;;;4.53;3.90;;;;;;;;;;5072529;28;20911;-56
2022/04/06 12:10:10;;;;;;;4.23;3.90;;;;;;;;;;5072254;28;20937;-60
2022/04/06 12:12:37;;;;;;;4.87;4.40;;;;;;;;;;5072285;28;20478;-59
2022/04/06 12:15:04;;;;;;;4.53;4.20;;;;;;;;;;5071131;28;20985;-58
2022/04/06 12:17:30;;;;;;;5.23;4.47;;;;;;;;;;5072155;28;20434;-60
2022/04/06 12:19:57;;;;;;;4.20;3.77;;;;;;;;;;5070650;28;20501;-58
2022/04/06 12:22:27;;;;;;;4.60;4.07;;;;;;;;;;5072398;28;20575;-61
2022/04/06 12:24:53;;;;;;;6.60;4.60;;;;;;;;;;5072235;28;20411;-60
2022/04/06 12:27:31;;;;;;;5.13;4.73;;;;;;;;;;5072441;28;20406;-59
2022/04/06 12:30:04;;;;;;;5.27;4.27;;;;;;;;;;5070717;28;20408;-60
2022/04/06 12:32:41;;;;;;;29.80;7.03;;;;;;;;;;5072111;28;20429;-60
2022/04/06 12:35:17;;;;;;;6.20;4.73;;;;;;;;;;5087359;28;20438;-60
2022/04/06 12:37:43;;;;;;;26.07;7.83;;;;;;;;;;5092193;28;20462;-60
2022/04/06 12:40:09;;;;;;;1000.87;157.33;;;;;;;;;;5091615;28;20410;-58
2022/04/06 12:42:36;;;;;;;208.77;28.83;;;;;;;;;;5091837;28;20461;-58
2022/04/06 12:45:06;;;;;;;5.87;4.40;;;;;;;;;;5090762;28;20459;-56
2022/04/06 12:47:32;;;;;;;5.87;4.93;;;;;;;;;;5090698;28;20430;-60
2022/04/06 12:50:13;;;;;;;6.00;5.10;;;;;;;;;;5091893;28;20808;-58
2022/04/06 12:52:39;;;;;;;12.00;6.13;;;;;;;;;;5091897;28;20488;-57
2022/04/06 12:55:07;;;;;;;17.90;5.97;;;;;;;;;;5091874;28;20406;-58
2022/04/06 12:57:36;;;;;;;9.80;4.97;;;;;;;;;;5091836;28;20950;-58
2022/04/06 13:00:07;;;;;;;11.57;6.07;;;;;;;;;;5091782;28;20406;-57
2022/04/06 13:02:35;;;;;;;6.77;4.60;;;;;;;;;;5091914;28;20469;-57
2022/04/06 13:05:02;;;;;;;14.30;5.00;;;;;;;;;;5091458;28;20716;-62
2022/04/06 13:07:29;;;;;;;8.10;4.93;;;;;;;;;;5091760;28;20452;-58
2022/04/06 13:09:58;;;;;;;5.03;4.53;;;;;;;;;;5091695;28;20435;-59
2022/04/06 13:12:28;;;;;;;5.70;5.10;;;;;;;;;;5091847;28;20410;-60
2022/04/06 13:14:58;;;;;;;5.47;5.00;;;;;;;;;;5091525;28;20416;-61
2022/04/06 13:17:24;;;;;;;5.40;4.90;;;;;;;;;;5091624;28;20402;-58
2022/04/06 13:19:50;;;;;;;8.23;5.70;;;;;;;;;;5091592;28;20457;-58
2022/04/06 13:22:17;;;;;;;6.23;4.97;;;;;;;;;;5091677;28;20496;-59
2022/04/06 13:24:43;;;;;;;516.10;58.23;;;;;;;;;;5091470;28;20403;-60
2022/04/06 13:27:09;;;;;;;21.70;7.80;;;;;;;;;;5091599;28;20429;-59
2022/04/06 13:29:36;;;;;;;7.73;5.07;;;;;;;;;;5091606;28;20459;-61
2022/04/06 13:32:03;;;;;;;26.30;7.33;;;;;;;;;;5091454;28;20482;-57
2022/04/06 13:34:29;;;;;;;9.10;6.13;;;;;;;;;;5081488;28;20410;-60
2022/04/06 13:36:55;;;;;;;11.60;6.00;;;;;;;;;;5071411;28;20930;-59
2022/04/06 13:39:22;;;;;;;13.80;6.40;;;;;;;;;;5071465;28;20399;-59
2022/04/06 13:41:52;;;;;;;6.47;5.20;;;;;;;;;;5071335;28;20477;-58
2022/04/06 13:44:20;;;;;;;16.07;6.20;;;;;;;;;;5070227;28;20495;-59
2022/04/06 13:46:47;;;;;;;8.37;5.10;;;;;;;;;;5070266;28;20445;-60
2022/04/06 13:49:13;;;;;;;7.13;5.93;;;;;;;;;;5070004;28;20410;-57
2022/04/06 13:51:39;;;;;;;11.60;6.47;;;;;;;;;;5070456;28;20756;-61
2022/04/06 13:54:06;;;;;;;5.93;4.90;;;;;;;;;;5074862;28;20407;-60
2022/04/06 13:56:32;;;;;;;8.57;5.97;;;;;;;;;;5075026;28;20807;-57
2022/04/06 13:58:58;;;;;;;6.67;5.07;;;;;;;;;;5074609;28;20926;-59
2022/04/06 14:01:24;;;;;;;7.23;5.63;;;;;;;;;;5073313;28;20475;-58
2022/04/06 14:03:52;;;;;;;8.73;5.70;;;;;;;;;;5074788;28;20425;-59
2022/04/06 14:06:21;;;;;;;6.03;5.53;;;;;;;;;;5073407;28;20406;-58
2022/04/06 14:08:47;;;;;;;7.67;5.90;;;;;;;;;;5074820;28;20464;-59
2022/04/06 14:11:14;;;;;;;7.87;4.80;;;;;;;;;;5074659;28;20450;-62
2022/04/06 14:13:40;;;;;;;7.90;5.60;;;;;;;;;;5074453;28;20509;-58
2022/04/06 14:16:06;;;;;;;7.73;5.70;;;;;;;;;;5074516;28;20407;-57
2022/04/06 14:18:32;;;;;;;6.27;4.57;;;;;;;;;;5074407;28;20446;-60
2022/04/06 14:20:58;;;;;;;5.70;5.17;;;;;;;;;;5074180;28;20978;-63
2022/04/06 14:23:24;;;;;;;6.10;5.17;;;;;;;;;;5074341;28;20477;-59
2022/04/06 14:25:50;;;;;;;6.30;5.70;;;;;;;;;;5074228;28;20411;-61
2022/04/06 14:28:19;;;;;;;6.87;5.83;;;;;;;;;;5074501;28;21037;-61
2022/04/06 14:30:52;;;;;;;7.50;5.07;;;;;;;;;;5072963;28;20438;-56
2022/04/06 14:33:19;;;;;;;6.60;5.90;;;;;;;;;;5074359;28;20402;-54
2022/04/06 14:35:48;;;;;;;5.20;4.70;;;;;;;;;;5094406;28;20414;-55
2022/04/06 14:38:15;;;;;;;8.47;5.23;;;;;;;;;;5094343;28;20394;-53
2022/04/06 14:40:47;;;;;;;8.03;5.80;;;;;;;;;;5094355;28;20412;-56
2022/04/06 14:43:16;;;;;;;6.73;6.10;;;;;;;;;;5092751;28;20469;-55
2022/04/06 14:45:43;;;;;;;7.13;5.33;;;;;;;;;;5094311;28;20402;-58